Time;durP1;ratioP1;P1;durP2;ratioP2;P2;SDS_P1;SDS_P2;PMS_P1;PMS_P2;Temp;Humidity;BMP_temperature;BMP_pressure;BME280_temperature;BME280_humidity;BME280_pressure;Samples;Min_cycle;Max_cycle;Signal;HPM_P1;HPM_P2
2022/09/11 00:00:03;;;;;;;;;;;;;;;17.02;66.85;101099.28;4964797;28;20006;-56
2022/09/11 00:02:29;;;;;;;;;;;;;;;16.99;66.70;101102.22;4965168;28;19972;-56
2022/09/11 00:04:54;;;;;;;;;;;;;;;16.96;66.64;101102.47;4966798;28;20313;-58
2022/09/11 00:07:19;;;;;;;;;;;;;;;16.93;67.00;101102.66;4959739;28;19938;-60
2022/09/11 00:09:45;;;;;;;;;;;;;;;16.89;66.97;101107.38;4965272;28;19930;-60
2022/09/11 00:12:11;;;;;;;;;;;;;;;16.87;66.93;101098.69;4957565;28;19922;-56
2022/09/11 00:14:36;;;;;;;;;;;;;;;16.84;67.04;101103.41;4934992;28;21151;-56
2022/09/11 00:17:02;;;;;;;;;;;;;;;16.82;66.91;101102.66;4962099;28;19926;-56
2022/09/11 00:19:27;;;;;;;;;;;;;;;16.82;66.80;101092.03;4966074;28;19922;-56
2022/09/11 00:21:56;;;;;;;;;;;;;;;16.79;67.01;101098.41;4964116;28;19984;-56
2022/09/11 00:24:21;;;;;;;;;;;;;;;16.76;66.96;101096.03;4964680;28;19922;-57
2022/09/11 00:26:47;;;;;;;;;;;;;;;16.71;67.20;101101.69;4964957;28;19934;-57
2022/09/11 00:29:12;;;;;;;;;;;;;;;16.67;67.06;101104.69;4963481;28;20012;-57
2022/09/11 00:31:37;;;;;;;;;;;;;;;16.60;67.32;101099.88;4964303;28;19930;-61
2022/09/11 00:34:03;;;;;;;;;;;;;;;16.57;67.37;101094.81;4965315;28;19960;-60
2022/09/11 00:36:30;;;;;;;;;;;;;;;16.54;67.58;101094.22;4963950;28;22647;-59
2022/09/11 00:38:56;;;;;;;;;;;;;;;16.60;67.51;101097.22;4963563;28;20047;-56
2022/09/11 00:41:26;;;;;;;;;;;;;;;16.65;67.37;101098.66;4963468;28;20042;-56
2022/09/11 00:43:54;;;;;;;;;;;;;;;16.66;67.15;101097.69;4966025;28;19925;-56
2022/09/11 00:46:20;;;;;;;;;;;;;;;16.67;67.11;101096.72;4966525;28;19973;-57
2022/09/11 00:48:48;;;;;;;;;;;;;;;16.69;67.18;101105.44;4964380;28;19926;-56
2022/09/11 00:51:16;;;;;;;;;;;;;;;16.69;67.29;101108.94;4965486;28;19977;-57
2022/09/11 00:53:42;;;;;;;;;;;;;;;16.69;67.22;101103.63;4964106;28;20120;-56
2022/09/11 00:56:09;;;;;;;;;;;;;;;16.70;67.16;101100.03;4964063;28;19930;-56
2022/09/11 00:58:37;;;;;;;;;;;;;;;16.71;67.33;101098.19;4964476;28;20409;-56
2022/09/11 01:01:02;;;;;;;;;;;;;;;16.72;67.23;101102.53;4962890;28;19922;-56
2022/09/11 01:03:31;;;;;;;;;;;;;;;16.69;67.21;101108.09;4964363;28;21332;-57
2022/09/11 01:05:56;;;;;;;;;;;;;;;16.59;67.13;101102.66;4968602;28;19938;-57
2022/09/11 01:08:22;;;;;;;;;;;;;;;16.51;67.31;101105.06;4969586;28;19922;-57
2022/09/11 01:10:59;;;;;;;;;;;;;;;16.42;67.34;101107.44;4964295;28;19930;-56
2022/09/11 01:13:24;;;;;;;;;;;;;;;16.32;67.50;101103.81;4964836;28;19925;-57
2022/09/11 01:16:02;;;;;;;;;;;;;;;16.29;67.61;101106.69;4965512;28;19925;-56
2022/09/11 01:18:36;;;;;;;;;;;;;;;16.27;67.54;101113.94;4970131;28;19922;-56
2022/09/11 01:21:07;;;;;;;;;;;;;;;16.21;67.57;101115.25;4967330;28;20410;-59
2022/09/11 01:23:44;;;;;;;;;;;;;;;16.18;67.62;101117.28;4964402;28;20294;-58
2022/09/11 01:26:13;;;;;;;;;;;;;;;16.09;67.74;101110.88;4967854;28;19933;-56
2022/09/11 01:28:53;;;;;;;;;;;;;;;16.04;67.64;101119.19;4964283;28;19983;-59
2022/09/11 01:31:21;;;;;;;;;;;;;;;16.04;67.79;101110.34;4964834;28;20038;-57
2022/09/11 01:33:50;;;;;;;;;;;;;;;16.05;67.77;101120.88;4967586;28;19930;-57
2022/09/11 01:36:21;;;;;;;;;;;;;;;16.04;67.76;101115.66;4965708;28;20100;-58
2022/09/11 01:38:47;;;;;;;;;;;;;;;16.01;67.73;101116.75;4969089;28;19926;-57
2022/09/11 01:41:18;;;;;;;;;;;;;;;15.95;67.63;101111.91;4967334;28;20302;-57
2022/09/11 01:43:50;;;;;;;;;;;;;;;15.84;67.82;101116.16;4965443;28;19975;-55
2022/09/11 01:46:21;;;;;;;;;;;;;;;15.79;67.96;101106.88;4964850;28;19930;-57
2022/09/11 01:48:48;;;;;;;;;;;;;;;15.78;67.96;101113.13;4963647;28;20445;-57
2022/09/11 01:51:20;;;;;;;;;;;;;;;15.68;68.11;101113.81;4963807;28;19977;-57
2022/09/11 01:53:47;;;;;;;;;;;;;;;15.60;68.32;101110.88;4968735;28;20017;-56
2022/09/11 01:56:18;;;;;;;;;;;;;;;15.51;68.72;101107.06;4967491;28;19926;-56
2022/09/11 01:58:45;;;;;;;;;;;;;;;15.49;68.81;101109.03;4964653;28;20031;-56
2022/09/11 02:01:18;;;;;;;;;;;;;;;15.49;68.96;101109.03;4967653;28;19941;-57
2022/09/11 02:03:47;;;;;;;;;;;;;;;15.52;69.06;101114.06;4966331;28;19934;-56
2022/09/11 02:06:20;;;;;;;;;;;;;;;15.53;69.23;101115.78;4964398;28;19929;-56
2022/09/11 02:08:49;;;;;;;;;;;;;;;15.58;69.35;101122.56;4966505;28;19925;-57
2022/09/11 02:11:15;;;;;;;;;;;;;;;15.66;69.44;101120.16;4965458;28;19921;-56
2022/09/11 02:13:56;;;;;;;;;;;;;;;15.76;69.33;101123.88;4967378;28;19977;-57
2022/09/11 02:16:47;;;;;;;;;;;;;;;15.85;69.16;101119.72;4966285;28;19922;-60
2022/09/11 02:19:15;;;;;;;;;;;;;;;15.95;68.84;101127.84;4947841;28;19932;-56
2022/09/11 02:21:41;;;;;;;;;;;;;;;16.03;68.98;101120.13;4969498;28;19941;-56
2022/09/11 02:24:08;;;;;;;;;;;;;;;16.11;68.90;101116.91;4966222;28;19922;-57
2022/09/11 02:26:38;;;;;;;;;;;;;;;16.18;68.89;101122.59;4969026;28;19941;-57
2022/09/11 02:29:04;;;;;;;;;;;;;;;16.24;68.88;101124.81;4969499;28;19926;-59
2022/09/11 02:31:30;;;;;;;;;;;;;;;16.29;68.79;101119.97;4968040;28;19928;-56
2022/09/11 02:33:56;;;;;;;;;;;;;;;16.34;68.78;101125.78;4968664;28;19922;-59
2022/09/11 02:36:21;;;;;;;;;;;;;;;16.35;68.76;101121.31;4964380;28;19957;-56
2022/09/11 02:39:13;;;;;;;;;;;;;;;16.30;68.82;101122.53;4962719;28;19975;-56
2022/09/11 02:41:50;;;;;;;;;;;;;;;16.22;69.01;101122.25;4960763;28;19926;-56
2022/09/11 02:44:31;;;;;;;;;;;;;;;16.18;69.22;101120.81;4963363;28;19926;-56
2022/09/11 02:47:32;;;;;;;;;;;;;;;16.20;69.48;101120.69;4959190;28;19922;-56
2022/09/11 02:50:03;;;;;;;;;;;;;;;16.23;69.38;101125.78;4919078;29;19922;-57
2022/09/11 02:52:43;;;;;;;;;;;;;;;16.26;69.35;101115.75;4959392;28;19929;-57
2022/09/11 02:55:09;;;;;;;;;;;;;;;16.26;69.51;101121.06;4964080;28;19937;-58
2022/09/11 02:57:38;;;;;;;;;;;;;;;16.25;69.60;101115.88;4969730;28;19914;-56
2022/09/11 03:00:06;;;;;;;;;;;;;;;16.24;69.79;101124.81;4964131;28;20021;-56
2022/09/11 03:02:35;;;;;;;;;;;;;;;16.22;69.81;101110.81;4962075;28;20032;-57
2022/09/11 03:05:00;;;;;;;;;;;;;;;16.28;70.10;101115.63;4964592;28;19922;-56
2022/09/11 03:07:25;;;;;;;;;;;;;;;16.33;70.20;101113.47;4966259;28;19953;-56
2022/09/11 03:09:51;;;;;;;;;;;;;;;16.35;69.76;101116.88;4963232;28;19929;-56
2022/09/11 03:12:17;;;;;;;;;;;;;;;16.32;70.04;101119.75;4963326;28;19925;-56
2022/09/11 03:14:42;;;;;;;;;;;;;;;16.30;70.33;101124.31;4967139;28;19941;-56
2022/09/11 03:17:08;;;;;;;;;;;;;;;16.29;70.33;101125.28;4964201;28;19929;-57
2022/09/11 03:19:33;;;;;;;;;;;;;;;16.28;70.62;101118.28;4961973;28;19970;-57
2022/09/11 03:21:58;;;;;;;;;;;;;;;16.26;70.81;101120.22;4965832;28;20850;-57
2022/09/11 03:24:25;;;;;;;;;;;;;;;16.24;71.20;101124.81;4966144;28;19941;-56
2022/09/11 03:26:50;;;;;;;;;;;;;;;16.26;71.17;101138.81;4966552;28;20433;-57
2022/09/11 03:29:15;;;;;;;;;;;;;;;16.24;71.48;101124.81;4966296;28;19930;-57
2022/09/11 03:31:41;;;;;;;;;;;;;;;16.27;71.53;101129.88;4962490;28;19946;-57
2022/09/11 03:34:06;;;;;;;;;;;;;;;16.29;71.42;101125.28;4962334;28;20724;-57
2022/09/11 03:36:33;;;;;;;;;;;;;;;16.28;71.36;101129.75;4967422;28;19930;-56
2022/09/11 03:38:58;;;;;;;;;;;;;;;16.28;71.55;101136.88;4965250;28;19964;-57
2022/09/11 03:41:24;;;;;;;;;;;;;;;16.25;71.60;101131.81;4966661;28;19926;-57
2022/09/11 03:43:50;;;;;;;;;;;;;;;16.24;71.81;101130.13;4961371;28;19930;-56
2022/09/11 03:46:16;;;;;;;;;;;;;;;16.24;71.97;101138.09;4964987;28;20001;-56
2022/09/11 03:48:42;;;;;;;;;;;;;;;16.22;72.21;101132.03;4965166;28;19929;-57
2022/09/11 03:51:07;;;;;;;;;;;;;;;16.21;72.29;101133.81;4960878;28;20448;-56
2022/09/11 03:53:33;;;;;;;;;;;;;;;16.23;72.35;101144.34;4960209;28;19930;-60
2022/09/11 03:55:59;;;;;;;;;;;;;;;16.22;72.45;101142.66;4962777;28;19948;-56
2022/09/11 03:58:24;;;;;;;;;;;;;;;16.22;72.47;101147.97;4963170;28;20325;-57
2022/09/11 04:00:50;;;;;;;;;;;;;;;16.23;72.52;101155.81;4968800;28;19933;-57
2022/09/11 04:03:16;;;;;;;;;;;;;;;16.21;72.81;101157.72;4964235;28;19923;-58
2022/09/11 04:05:43;;;;;;;;;;;;;;;16.20;73.03;101153.38;4959643;28;20455;-57
2022/09/11 04:08:12;;;;;;;;;;;;;;;16.22;73.00;101169.22;4966478;28;20322;-56
2022/09/11 04:10:37;;;;;;;;;;;;;;;16.21;73.22;101156.91;4965887;28;20118;-58
2022/09/11 04:13:03;;;;;;;;;;;;;;;16.20;73.18;101165.81;4961847;28;20298;-56
2022/09/11 04:15:28;;;;;;;;;;;;;;;16.19;73.24;101169.44;4967115;28;20282;-57
2022/09/11 04:17:53;;;;;;;;;;;;;;;16.21;73.33;101170.16;4960831;28;20449;-56
2022/09/11 04:20:19;;;;;;;;;;;;;;;16.22;73.41;101167.38;4961849;28;19926;-57
2022/09/11 04:22:44;;;;;;;;;;;;;;;16.27;73.24;101177.66;4965159;28;19937;-56
2022/09/11 04:25:11;;;;;;;;;;;;;;;16.31;73.17;101165.84;4962912;28;20358;-58
2022/09/11 04:27:36;;;;;;;;;;;;;;;16.34;73.07;101162.09;4967072;28;20120;-57
2022/09/11 04:30:02;;;;;;;;;;;;;;;16.35;73.03;101162.00;4962897;28;20761;-57
2022/09/11 04:32:28;;;;;;;;;;;;;;;16.37;72.89;101175.16;4965076;28;19996;-57
2022/09/11 04:34:53;;;;;;;;;;;;;;;16.35;72.99;101169.97;4963656;28;19929;-56
2022/09/11 04:37:19;;;;;;;;;;;;;;;16.34;73.14;101168.28;4957540;28;19947;-56
2022/09/11 04:39:44;;;;;;;;;;;;;;;16.38;73.29;101172.41;4966059;28;20963;-57
2022/09/11 04:42:09;;;;;;;;;;;;;;;16.42;73.26;101165.88;4966055;28;19948;-56
2022/09/11 04:44:35;;;;;;;;;;;;;;;16.44;73.16;101169.25;4965930;28;19977;-56
2022/09/11 04:47:00;;;;;;;;;;;;;;;16.49;73.08;101176.03;4959688;28;19934;-56
2022/09/11 04:49:26;;;;;;;;;;;;;;;16.51;73.16;101172.31;4963501;28;20390;-56
2022/09/11 04:51:51;;;;;;;;;;;;;;;16.54;72.95;101171.25;4959523;28;19933;-56
2022/09/11 04:54:19;;;;;;;;;;;;;;;16.57;73.01;101168.31;4961526;28;19926;-56
2022/09/11 04:56:45;;;;;;;;;;;;;;;16.60;72.84;101173.41;4965675;28;19918;-57
2022/09/11 04:59:12;;;;;;;;;;;;;;;16.61;73.03;101175.97;4968979;28;19918;-58
2022/09/11 05:01:38;;;;;;;;;;;;;;;16.65;72.79;101170.41;4964754;28;19922;-59
2022/09/11 05:04:04;;;;;;;;;;;;;;;16.66;72.91;101172.94;4964572;28;19926;-60
2022/09/11 05:06:29;;;;;;;;;;;;;;;16.67;72.87;101177.31;4965243;28;20605;-57
2022/09/11 05:08:55;;;;;;;;;;;;;;;16.67;72.74;101173.78;4964704;28;19965;-57
2022/09/11 05:11:21;;;;;;;;;;;;;;;16.64;73.00;101180.19;4963867;28;20346;-60
2022/09/11 05:13:46;;;;;;;;;;;;;;;16.64;73.07;101174.03;4962947;28;20013;-56
2022/09/11 05:16:13;;;;;;;;;;;;;;;16.64;73.12;101187.31;4960107;28;19957;-57
2022/09/11 05:18:39;;;;;;;;;;;;;;;16.64;73.14;101193.47;4960627;28;19968;-57
2022/09/11 05:21:06;;;;;;;;;;;;;;;16.65;73.25;101187.19;4960618;28;20309;-57
2022/09/11 05:23:32;;;;;;;;;;;;;;;16.67;73.39;101185.28;4959835;28;19930;-55
2022/09/11 05:25:59;;;;;;;;;;;;;;;16.70;73.17;101185.03;4961078;28;20819;-57
2022/09/11 05:28:25;;;;;;;;;;;;;;;16.73;73.12;101190.09;4964217;28;19922;-56
2022/09/11 05:30:52;;;;;;;;;;;;;;;16.76;73.14;101195.19;4962351;28;19922;-56
2022/09/11 05:33:17;;;;;;;;;;;;;;;16.79;73.13;101194.09;4962394;28;19972;-56
2022/09/11 05:35:43;;;;;;;;;;;;;;;16.81;73.06;101192.16;4965074;28;19953;-56
2022/09/11 05:38:09;;;;;;;;;;;;;;;16.82;73.37;101193.03;4960473;28;19921;-57
2022/09/11 05:40:35;;;;;;;;;;;;;;;16.87;73.17;101196.16;4964682;28;19985;-59
2022/09/11 05:43:01;;;;;;;;;;;;;;;16.90;72.89;101202.09;4963734;28;20004;-58
2022/09/11 05:45:26;;;;;;;;;;;;;;;16.89;72.91;101204.88;4963208;28;19922;-58
2022/09/11 05:47:52;;;;;;;;;;;;;;;16.88;73.11;101204.03;4961990;28;19934;-56
2022/09/11 05:50:20;;;;;;;;;;;;;;;16.88;73.25;101211.13;4964488;28;20572;-57
2022/09/11 05:52:45;;;;;;;;;;;;;;;16.91;73.28;101218.88;4965335;28;19934;-57
2022/09/11 05:55:11;;;;;;;;;;;;;;;16.94;73.27;101221.31;4970270;28;19933;-56
2022/09/11 05:57:36;;;;;;;;;;;;;;;16.97;73.21;101225.56;4966399;28;20024;-58
2022/09/11 06:00:02;;;;;;;;;;;;;;;17.00;73.10;101231.50;4967433;28;19933;-55
2022/09/11 06:02:27;;;;;;;;;;;;;;;17.02;72.85;101234.03;4967104;28;19926;-57
2022/09/11 06:04:53;;;;;;;;;;;;;;;17.01;72.95;101237.66;4968885;28;19946;-59
2022/09/11 06:07:18;;;;;;;;;;;;;;;17.02;72.77;101236.69;4964443;28;19957;-57
2022/09/11 06:09:43;;;;;;;;;;;;;;;17.02;73.03;101237.53;4966722;28;20021;-58
2022/09/11 06:12:11;;;;;;;;;;;;;;;17.02;72.84;101234.88;4967866;28;19953;-57
2022/09/11 06:14:37;;;;;;;;;;;;;;;17.04;72.80;101240.91;4961542;28;19972;-57
2022/09/11 06:17:02;;;;;;;;;;;;;;;17.05;72.87;101242.63;4969214;28;19926;-57
2022/09/11 06:19:27;;;;;;;;;;;;;;;17.06;72.71;101239.00;4967080;28;21296;-56
2022/09/11 06:21:53;;;;;;;;;;;;;;;17.08;72.96;101244.22;4962371;28;19925;-57
2022/09/11 06:24:18;;;;;;;;;;;;;;;17.09;72.68;101250.38;4964219;28;20301;-57
2022/09/11 06:26:45;;;;;;;;;;;;;;;17.05;72.87;101255.91;4967436;28;19934;-56
2022/09/11 06:29:13;;;;;;;;;;;;;;;17.07;72.99;101261.13;4968254;28;20000;-56
2022/09/11 06:31:39;;;;;;;;;;;;;;;17.12;72.91;101261.59;4959518;28;19925;-56
2022/09/11 06:34:04;;;;;;;;;;;;;;;17.15;72.82;101263.19;4957888;28;19937;-56
2022/09/11 06:36:30;;;;;;;;;;;;;;;17.20;72.92;101263.66;4961033;28;20591;-57
2022/09/11 06:38:56;;;;;;;;;;;;;;;17.23;72.52;101268.75;4958879;28;19922;-59
2022/09/11 06:41:23;;;;;;;;;;;;;;;17.25;72.39;101272.13;4971115;28;19922;-57
2022/09/11 06:43:48;;;;;;;;;;;;;;;17.27;72.32;101272.88;4961350;28;19950;-56
2022/09/11 06:46:18;;;;;;;;;;;;;;;17.28;72.23;101263.94;4964157;28;19930;-57
2022/09/11 06:48:45;;;;;;;;;;;;;;;17.30;72.38;101269.97;4966877;28;20291;-58
2022/09/11 06:51:11;;;;;;;;;;;;;;;17.32;72.42;101275.16;4965494;28;19925;-60
2022/09/11 06:53:36;;;;;;;;;;;;;;;17.36;72.30;101277.47;4968169;28;19933;-56
2022/09/11 06:56:03;;;;;;;;;;;;;;;17.38;71.89;101274.69;4961900;28;19922;-56
2022/09/11 06:58:28;;;;;;;;;;;;;;;17.42;71.92;101283.28;4966717;28;19922;-58
2022/09/11 07:01:14;;;;;;;;;;;;;;;17.43;71.77;101275.16;4963156;28;20224;-56
2022/09/11 07:03:45;;;;;;;;;;;;;;;17.46;71.73;101282.09;4965759;28;20013;-56
2022/09/11 07:06:11;;;;;;;;;;;;;;;17.48;71.64;101274.78;4963410;28;19985;-56
2022/09/11 07:08:37;;;;;;;;;;;;;;;17.48;71.43;101280.97;4967646;28;19930;-56
2022/09/11 07:11:04;;;;;;;;;;;;;;;17.50;71.29;101279.06;4966507;28;19930;-57
2022/09/11 07:13:31;;;;;;;;;;;;;;;17.52;71.33;101276.25;4958503;28;19933;-56
2022/09/11 07:16:03;;;;;;;;;;;;;;;17.58;71.17;101285.56;4959777;28;19933;-58
2022/09/11 07:18:32;;;;;;;;;;;;;;;17.54;70.93;101286.81;4960928;28;19961;-56
2022/09/11 07:20:57;;;;;;;;;;;;;;;17.55;71.13;101285.81;4956106;28;19988;-57
2022/09/11 07:23:22;;;;;;;;;;;;;;;17.55;70.96;101285.81;4963018;28;20337;-57
2022/09/11 07:25:48;;;;;;;;;;;;;;;17.56;70.84;101288.34;4959317;28;20025;-56
2022/09/11 07:28:14;;;;;;;;;;;;;;;17.58;70.79;101285.56;4956519;28;19984;-56
2022/09/11 07:30:39;;;;;;;;;;;;;;;17.60;70.87;101288.97;4959921;28;19929;-59
2022/09/11 07:33:05;;;;;;;;;;;;;;;17.62;70.66;101287.84;4964554;28;19930;-56
2022/09/11 07:35:30;;;;;;;;;;;;;;;17.65;70.52;101292.94;4961740;28;20000;-56
2022/09/11 07:37:56;;;;;;;;;;;;;;;17.66;70.26;101291.97;4961388;28;19922;-57
2022/09/11 07:40:22;;;;;;;;;;;;;;;17.69;70.42;101288.25;4964678;28;20000;-55
2022/09/11 07:42:47;;;;;;;;;;;;;;;17.72;70.19;101295.13;4957620;28;20598;-56
2022/09/11 07:45:12;;;;;;;;;;;;;;;17.72;69.73;101300.44;4957724;28;19926;-56
2022/09/11 07:47:38;;;;;;;;;;;;;;;17.67;69.61;101296.34;4960951;28;20024;-58
2022/09/11 07:50:03;;;;;;;;;;;;;;;17.64;69.66;101299.22;4962423;28;20279;-59
2022/09/11 07:52:29;;;;;;;;;;;;;;;17.68;69.47;101297.19;4961851;28;20044;-58
2022/09/11 07:54:54;;;;;;;;;;;;;;;17.70;69.68;101289.06;4962160;28;20309;-58
2022/09/11 07:57:20;;;;;;;;;;;;;;;17.72;69.75;101289.81;4958962;28;20013;-59
2022/09/11 07:59:46;;;;;;;;;;;;;;;17.77;69.75;101300.94;4963644;28;20397;-56
2022/09/11 08:02:11;;;;;;;;;;;;;;;17.80;69.79;101300.69;4962622;28;19926;-56
2022/09/11 08:04:37;;;;;;;;;;;;;;;17.83;69.88;101300.44;4961681;28;19933;-56
2022/09/11 08:07:02;;;;;;;;;;;;;;;17.88;69.73;101311.56;4966767;28;19922;-56
2022/09/11 08:09:28;;;;;;;;;;;;;;;17.91;69.84;101308.69;4967358;28;20017;-56
2022/09/11 08:11:57;;;;;;;;;;;;;;;17.94;69.98;101308.41;4955975;28;20171;-56
2022/09/11 08:14:23;;;;;;;;;;;;;;;17.98;69.71;101323.19;4955096;28;20935;-59
2022/09/11 08:16:49;;;;;;;;;;;;;;;18.03;69.65;101314.00;4956747;28;20008;-58
2022/09/11 08:19:17;;;;;;;;;;;;;;;18.07;69.19;101331.44;4956839;28;20378;-59
2022/09/11 08:21:43;;;;;;;;;;;;;;;18.10;69.11;101324.03;4951165;28;19933;-56
2022/09/11 08:24:10;;;;;;;;;;;;;;;18.12;68.61;101319.44;4954704;28;19926;-58
2022/09/11 08:26:36;;;;;;;;;;;;;;;18.16;68.92;101327.16;4972172;28;20412;-57
2022/09/11 08:29:01;;;;;;;;;;;;;;;18.22;68.23;101332.88;4958310;28;19926;-56
2022/09/11 08:31:27;;;;;;;;;;;;;;;18.27;68.53;101330.66;4960256;28;20310;-56
2022/09/11 08:33:52;;;;;;;;;;;;;;;18.31;68.13;101333.06;4958793;28;19977;-58
2022/09/11 08:36:18;;;;;;;;;;;;;;;18.32;67.82;101326.78;4958943;28;19930;-56
2022/09/11 08:38:44;;;;;;;;;;;;;;;18.33;67.81;101339.13;4956694;28;20377;-56
2022/09/11 08:41:26;;;;;;;;;;;;;;;18.33;67.63;101345.28;4953744;28;19925;-55
2022/09/11 08:43:53;;;;;;;;;;;;;;;18.32;67.48;101340.94;4962490;28;19933;-55
2022/09/11 08:46:22;;;;;;;;;;;;;;;18.30;67.08;101344.69;4948618;28;19969;-56
2022/09/11 08:48:47;;;;;;;;;;;;;;;18.29;67.31;101346.53;4958495;28;19926;-56
2022/09/11 08:51:14;;;;;;;;;;;;;;;18.30;66.92;101353.56;4962983;28;19953;-58
2022/09/11 08:53:39;;;;;;;;;;;;;;;18.32;66.93;101356.91;4960060;28;19926;-56
2022/09/11 08:56:08;;;;;;;;;;;;;;;18.36;67.16;101355.69;4959062;28;19930;-56
2022/09/11 08:59:01;;;;;;;;;;;;;;;18.39;66.80;101352.78;4960318;28;19933;-57
2022/09/11 09:01:29;;;;;;;;;;;;;;;18.40;66.47;101356.28;4944569;28;19936;-56
2022/09/11 09:04:17;;;;;;;;;;;;;;;18.42;66.19;101355.22;4959854;28;19933;-57
2022/09/11 09:07:03;;;;;;;;;;;;;;;18.49;66.30;101360.88;4950633;28;19930;-58
2022/09/11 09:09:50;;;;;;;;;;;;;;;18.54;66.01;101353.34;4939578;28;20040;-56
2022/09/11 09:12:19;;;;;;;;;;;;;;;18.54;65.43;101356.00;4958245;28;20565;-56
2022/09/11 09:15:03;;;;;;;;;;;;;;;18.56;65.36;101358.56;4951198;28;19986;-55
2022/09/11 09:17:49;;;;;;;;;;;;;;;18.58;65.52;101349.47;4958606;28;20342;-56
2022/09/11 09:20:20;;;;;;;;;;;;;;;18.61;65.28;101359.00;4957598;28;19936;-56
2022/09/11 09:23:10;;;;;;;;;;;;;;;18.65;65.05;101356.97;4964274;28;19926;-56
2022/09/11 09:25:37;;;;;;;;;;;;;;;18.68;64.86;101365.53;4964206;28;19980;-57
2022/09/11 09:28:24;;;;;;;;;;;;;;;18.71;64.61;101364.44;4965561;28;19930;-57
2022/09/11 09:30:56;;;;;;;;;;;;;;;18.71;64.79;101357.31;4964387;28;19945;-56
2022/09/11 09:33:32;;;;;;;;;;;;;;;18.73;64.54;101367.81;4966939;28;20035;-56
2022/09/11 09:36:16;;;;;;;;;;;;;;;18.75;64.88;101371.22;4962149;28;19922;-56
2022/09/11 09:38:41;;;;;;;;;;;;;;;18.79;64.51;101369.13;4963504;28;19932;-58
2022/09/11 09:41:10;;;;;;;;;;;;;;;18.82;64.61;101361.75;4962410;28;19926;-57
2022/09/11 09:43:35;;;;;;;;;;;;;;;18.91;64.55;101364.59;4964041;28;19980;-56
2022/09/11 09:46:21;;;;;;;;;;;;;;;18.96;64.31;101357.94;4962211;28;19926;-55
2022/09/11 09:48:46;;;;;;;;;;;;;;;19.02;64.24;101362.78;4953505;28;20327;-57
2022/09/11 09:51:12;;;;;;;;;;;;;;;19.05;63.97;101367.00;4961605;28;19933;-56
2022/09/11 09:53:41;;;;;;;;;;;;;;;19.06;64.47;101362.53;4960942;28;19922;-56
2022/09/11 09:56:06;;;;;;;;;;;;;;;19.10;64.26;101362.13;4961019;28;19926;-56
2022/09/11 09:58:52;;;;;;;;;;;;;;;19.17;64.15;101368.63;4966128;28;19961;-56
2022/09/11 10:01:50;;;;;;;;;;;;;;;19.25;64.05;101373.31;4950570;28;20387;-57
2022/09/11 10:04:26;;;;;;;;;;;;;;;19.27;63.94;101365.19;4921136;28;20021;-57
2022/09/11 10:07:03;;;;;;;;;;;;;;;19.25;64.04;101359.13;4964370;28;19930;-56
2022/09/11 10:09:29;;;;;;;;;;;;;;;19.25;63.96;101362.63;4963714;28;19934;-56
2022/09/11 10:12:00;;;;;;;;;;;;;;;19.24;64.02;101373.44;4961589;28;19926;-60
2022/09/11 10:14:26;;;;;;;;;;;;;;;19.24;63.66;101374.28;4961162;28;20275;-58
2022/09/11 10:16:52;;;;;;;;;;;;;;;19.26;63.66;101366.16;4962459;28;20400;-56
2022/09/11 10:19:35;;;;;;;;;;;;;;;19.26;64.00;101363.50;4962918;28;19985;-57
2022/09/11 10:22:19;;;;;;;;;;;;;;;19.30;63.95;101359.56;4965329;28;19932;-57
2022/09/11 10:24:44;;;;;;;;;;;;;;;19.34;63.92;101361.00;4965369;28;20390;-56
2022/09/11 10:27:11;;;;;;;;;;;;;;;19.40;63.61;101375.66;4959594;28;19972;-56
2022/09/11 10:29:36;;;;;;;;;;;;;;;19.42;63.48;101358.56;4964326;28;20643;-56
2022/09/11 10:32:02;;;;;;;;;;;;;;;19.42;63.51;101371.88;4958526;28;21100;-56
2022/09/11 10:34:35;;;;;;;;;;;;;;;19.42;63.39;101374.56;4957946;28;19974;-57
2022/09/11 10:37:02;;;;;;;;;;;;;;;19.44;63.31;101374.41;4959833;28;20016;-57
2022/09/11 10:39:30;;;;;;;;;;;;;;;19.47;63.29;101366.16;4959261;28;19929;-57
2022/09/11 10:41:58;;;;;;;;;;;;;;;19.50;63.16;101369.41;4960868;28;19929;-56
2022/09/11 10:44:24;;;;;;;;;;;;;;;19.51;62.89;101372.94;4957448;28;20498;-56
2022/09/11 10:47:01;;;;;;;;;;;;;;;19.53;63.01;101364.78;4962458;28;19936;-56
2022/09/11 10:49:26;;;;;;;;;;;;;;;19.57;62.95;101371.56;4964718;28;19922;-56
2022/09/11 10:52:00;;;;;;;;;;;;;;;19.60;62.81;101373.94;4964103;28;19926;-56
2022/09/11 10:54:25;;;;;;;;;;;;;;;19.60;62.63;101376.59;4960087;28;20322;-56
2022/09/11 10:57:12;;;;;;;;;;;;;;;19.59;62.75;101380.25;4962321;28;19926;-56
2022/09/11 10:59:45;;;;;;;;;;;;;;;19.54;62.26;101371.81;4947675;28;19933;-56
2022/09/11 11:02:24;;;;;;;;;;;;;;;19.48;62.47;101384.69;4951159;28;20341;-56
2022/09/11 11:04:49;;;;;;;;;;;;;;;19.46;62.45;101375.97;4953471;28;19944;-56
2022/09/11 11:07:35;;;;;;;;;;;;;;;19.46;62.68;101375.97;4959579;28;20306;-59
2022/09/11 11:10:24;;;;;;;;;;;;;;;19.43;62.54;101376.25;4954419;28;20020;-56
2022/09/11 11:12:49;;;;;;;;;;;;;;;19.42;62.52;101379.91;4966186;28;19922;-56
2022/09/11 11:15:23;;;;;;;;;;;;;;;19.42;62.52;101381.69;4961852;28;19947;-56
2022/09/11 11:18:12;;;;;;;;;;;;;;;19.39;62.55;101380.16;4964987;28;19922;-56
2022/09/11 11:20:38;;;;;;;;;;;;;;;19.37;61.78;101382.09;4962652;28;19922;-57
2022/09/11 11:23:12;;;;;;;;;;;;;;;19.35;62.25;101384.03;4963643;28;19928;-56
2022/09/11 11:25:56;;;;;;;;;;;;;;;19.36;62.11;101382.25;4961605;28;19989;-57
2022/09/11 11:28:40;;;;;;;;;;;;;;;19.35;62.13;101386.72;4956329;28;19989;-57
2022/09/11 11:31:16;;;;;;;;;;;;;;;19.36;62.23;101375.06;4959993;28;20907;-56
2022/09/11 11:34:01;;;;;;;;;;;;;;;19.36;62.06;101379.56;4955324;28;20004;-56
2022/09/11 11:36:33;;;;;;;;;;;;;;;19.37;62.53;101386.56;4957460;28;20353;-56
2022/09/11 11:39:11;;;;;;;;;;;;;;;19.38;62.65;101381.13;4963628;28;19957;-57
2022/09/11 11:41:40;;;;;;;;;;;;;;;19.40;62.75;101376.50;4962639;28;19965;-56
2022/09/11 11:44:11;;;;;;;;;;;;;;;19.40;62.83;101375.66;4960363;28;19926;-56
2022/09/11 11:46:39;;;;;;;;;;;;;;;19.37;63.06;101384.78;4959719;28;19933;-57
2022/09/11 11:49:10;;;;;;;;;;;;;;;19.34;63.47;101380.56;4957557;28;20417;-56
2022/09/11 11:51:54;;;;;;;;;;;;;;;19.36;63.19;101396.41;4957684;28;21331;-56
2022/09/11 11:54:25;;;;;;;;;;;;;;;19.42;63.56;101381.69;4954197;28;20021;-58
2022/09/11 11:56:53;;;;;;;;;;;;;;;19.47;63.60;101383.00;4947882;28;19926;-58
2022/09/11 11:59:21;;;;;;;;;;;;;;;19.55;62.91;101384.19;4958846;28;20674;-56
2022/09/11 12:02:03;;;;;;;;;;;;;;;19.60;62.78;101381.94;4960449;28;19929;-57
2022/09/11 12:04:28;;;;;;;;;;;;;;;19.65;62.63;101385.94;4961947;28;19932;-56
2022/09/11 12:06:54;;;;;;;;;;;;;;;19.71;62.39;101379.22;4955816;28;19929;-57
2022/09/11 12:09:19;;;;;;;;;;;;;;;19.75;62.01;101380.59;4951915;28;19930;-56
2022/09/11 12:11:46;;;;;;;;;;;;;;;19.79;61.78;101382.03;4962658;28;19930;-57
2022/09/11 12:14:24;;;;;;;;;;;;;;;19.83;61.35;101387.13;4961878;28;19929;-56
2022/09/11 12:16:51;;;;;;;;;;;;;;;19.82;60.69;101374.75;4962203;28;19929;-56
2022/09/11 12:19:20;;;;;;;;;;;;;;;19.85;60.64;101385.16;4957375;28;19949;-57
2022/09/11 12:21:48;;;;;;;;;;;;;;;19.89;60.81;101381.28;4962956;28;19933;-56
2022/09/11 12:24:14;;;;;;;;;;;;;;;19.93;60.06;101382.69;4962865;28;19933;-56
2022/09/11 12:26:40;;;;;;;;;;;;;;;19.97;59.61;101372.56;4964607;28;20349;-56
2022/09/11 12:29:12;;;;;;;;;;;;;;;20.00;59.81;101378.50;4963988;28;19926;-56
2022/09/11 12:31:50;;;;;;;;;;;;;;;20.08;59.69;101378.66;4956117;28;20337;-56
2022/09/11 12:34:34;;;;;;;;;;;;;;;20.14;59.23;101374.59;4958764;28;20393;-56
2022/09/11 12:37:05;;;;;;;;;;;;;;;20.23;59.03;101376.47;4960306;28;19921;-56
2022/09/11 12:39:33;;;;;;;;;;;;;;;20.31;59.05;101381.13;4960332;28;19922;-58
2022/09/11 12:42:19;;;;;;;;;;;;;;;20.38;58.34;101381.44;4959045;28;19928;-55
2022/09/11 12:44:44;;;;;;;;;;;;;;;20.43;57.85;101375.66;4956759;28;19933;-58